Time;durP1;ratioP1;P1;durP2;ratioP2;P2;SDS_P1;SDS_P2;PMS_P1;PMS_P2;Temp;Humidity;BMP_temperature;BMP_pressure;BME280_temperature;BME280_humidity;BME280_pressure;Samples;Min_cycle;Max_cycle;Signal;HPM_P1;HPM_P2
2023/04/27 00:02:03;;;;;;;8.37;5.57;;;6.40;99.90;;;;;;5032928;28;20350;-45
2023/04/27 00:04:28;;;;;;;13.50;5.83;;;6.40;99.90;;;;;;5033293;28;20188;-41
2023/04/27 00:06:54;;;;;;;10.53;6.00;;;6.30;99.90;;;;;;5033062;28;20176;-42
2023/04/27 00:09:19;;;;;;;10.00;5.53;;;6.30;99.90;;;;;;5033022;28;20541;-45
2023/04/27 00:11:45;;;;;;;9.00;5.80;;;6.30;99.90;;;;;;5015328;28;20208;-45
2023/04/27 00:14:10;;;;;;;14.43;5.87;;;6.20;99.90;;;;;;5033016;28;20169;-42
2023/04/27 00:16:36;;;;;;;9.03;5.80;;;6.20;99.90;;;;;;5033250;28;20188;-44
2023/04/27 00:19:02;;;;;;;10.97;6.00;;;6.20;99.90;;;;;;5032927;28;20183;-45
2023/04/27 00:21:27;;;;;;;10.37;5.93;;;6.10;99.90;;;;;;5032981;28;20205;-41
2023/04/27 00:23:53;;;;;;;11.07;5.90;;;6.10;99.90;;;;;;5033234;28;20181;-45
2023/04/27 00:26:21;;;;;;;11.17;6.73;;;6.10;99.90;;;;;;5032948;28;20200;-41
2023/04/27 00:28:46;;;;;;;9.70;6.43;;;6.10;99.90;;;;;;5033148;28;20251;-44
2023/04/27 00:31:12;;;;;;;10.33;6.10;;;6.10;99.90;;;;;;5033317;28;20661;-44
2023/04/27 00:33:37;;;;;;;14.07;6.27;;;6.10;99.90;;;;;;5035793;28;20197;-44
2023/04/27 00:36:03;;;;;;;11.20;6.30;;;6.10;99.90;;;;;;5036674;28;20622;-46
2023/04/27 00:38:30;;;;;;;10.50;6.23;;;6.10;99.90;;;;;;5036528;28;20185;-45
2023/04/27 00:41:02;;;;;;;12.80;6.93;;;6.10;99.90;;;;;;5036418;28;20201;-43
2023/04/27 00:43:28;;;;;;;10.40;6.70;;;6.10;99.90;;;;;;5036809;28;20201;-47
2023/04/27 00:45:54;;;;;;;10.80;6.20;;;6.10;99.90;;;;;;5036474;28;20656;-46
2023/04/27 00:48:20;;;;;;;10.73;6.27;;;6.00;99.90;;;;;;5036442;28;20634;-46
2023/04/27 00:50:46;;;;;;;12.43;6.30;;;6.00;99.90;;;;;;5036459;28;20185;-44
2023/04/27 00:53:12;;;;;;;9.23;6.27;;;6.00;99.90;;;;;;5036265;28;20207;-45
2023/04/27 00:55:37;;;;;;;9.10;6.03;;;5.90;99.90;;;;;;5036340;28;20192;-43
2023/04/27 00:58:03;;;;;;;9.97;6.40;;;5.90;99.90;;;;;;5036434;28;20181;-41
2023/04/27 01:00:28;;;;;;;10.00;6.73;;;5.80;99.90;;;;;;5036114;28;20215;-44
2023/04/27 01:02:54;;;;;;;12.30;6.03;;;5.80;99.90;;;;;;5036251;28;20548;-44
2023/04/27 01:05:20;;;;;;;10.10;6.10;;;5.80;99.90;;;;;;5036111;28;20223;-44
2023/04/27 01:07:46;;;;;;;9.73;6.37;;;5.70;99.90;;;;;;5036365;28;20185;-45
2023/04/27 01:10:11;;;;;;;10.43;6.20;;;5.70;99.90;;;;;;5018262;28;20252;-42
2023/04/27 01:12:37;;;;;;;8.30;6.07;;;5.60;99.90;;;;;;5035999;28;20206;-42
2023/04/27 01:15:05;;;;;;;8.67;6.27;;;5.60;99.90;;;;;;5036170;28;20216;-43
2023/04/27 01:17:30;;;;;;;11.77;6.43;;;5.60;99.90;;;;;;5036190;28;20177;-45
2023/04/27 01:19:56;;;;;;;13.33;7.20;;;5.50;99.90;;;;;;5036230;28;20641;-46
2023/04/27 01:22:22;;;;;;;13.47;6.77;;;5.40;99.90;;;;;;5035722;28;20255;-45
2023/04/27 01:24:47;;;;;;;11.73;6.93;;;5.30;99.90;;;;;;5035793;28;20181;-44
2023/04/27 01:27:13;;;;;;;13.73;7.27;;;5.30;99.90;;;;;;5036210;28;20176;-45
2023/04/27 01:29:39;;;;;;;13.17;6.73;;;5.30;99.90;;;;;;5036099;28;20646;-44
2023/04/27 01:32:05;;;;;;;10.33;6.63;;;5.30;99.90;;;;;;5035649;28;20233;-44
2023/04/27 01:34:30;;;;;;;15.33;6.90;;;5.20;99.90;;;;;;5036229;28;20177;-46
2023/04/27 01:36:56;;;;;;;12.40;6.97;;;5.20;99.90;;;;;;5036183;28;20279;-46
2023/04/27 01:39:22;;;;;;;15.03;7.33;;;5.20;99.90;;;;;;5035728;28;20177;-44
2023/04/27 01:41:47;;;;;;;10.17;7.33;;;5.10;99.90;;;;;;5035783;28;20294;-45
2023/04/27 01:44:13;;;;;;;13.87;7.23;;;5.00;99.90;;;;;;5035330;28;20184;-46
2023/04/27 01:46:39;;;;;;;12.07;7.30;;;5.00;99.90;;;;;;5035739;28;20169;-44
2023/04/27 01:49:04;;;;;;;11.07;6.77;;;5.00;99.90;;;;;;5035919;28;20199;-44
2023/04/27 01:51:31;;;;;;;10.43;6.83;;;5.00;99.90;;;;;;5037026;28;20205;-45
2023/04/27 01:53:57;;;;;;;11.90;6.93;;;5.00;99.90;;;;;;5042744;28;20178;-45
2023/04/27 01:56:23;;;;;;;13.83;7.53;;;5.00;99.90;;;;;;5042387;28;20184;-44
2023/04/27 01:58:48;;;;;;;11.07;6.63;;;4.90;99.90;;;;;;5035566;28;20176;-45
2023/04/27 02:01:14;;;;;;;13.70;7.60;;;4.90;99.90;;;;;;5035331;28;20262;-45
2023/04/27 02:03:40;;;;;;;12.13;6.97;;;4.90;99.90;;;;;;5035429;28;20201;-47
2023/04/27 02:06:06;;;;;;;12.67;7.13;;;4.90;99.90;;;;;;5035256;28;20259;-45
2023/04/27 02:08:32;;;;;;;11.07;6.90;;;4.80;99.90;;;;;;5035058;28;20734;-46
2023/04/27 02:10:58;;;;;;;15.03;7.40;;;4.80;99.90;;;;;;5035290;28;20267;-43
2023/04/27 02:13:23;;;;;;;10.43;6.53;;;4.70;99.90;;;;;;5034762;28;20231;-45
2023/04/27 02:15:49;;;;;;;13.00;7.80;;;4.70;99.90;;;;;;5035099;28;20183;-44
2023/04/27 02:18:15;;;;;;;17.20;7.17;;;4.60;99.90;;;;;;5016956;28;20208;-44
2023/04/27 02:20:41;;;;;;;13.93;7.37;;;4.70;99.90;;;;;;5034679;28;20203;-46
2023/04/27 02:23:06;;;;;;;11.23;6.87;;;4.60;99.90;;;;;;5034533;28;20645;-44
2023/04/27 02:25:35;;;;;;;9.87;6.50;;;4.60;99.90;;;;;;5034821;28;20185;-43
2023/04/27 02:28:00;;;;;;;13.13;6.13;;;4.50;99.90;;;;;;5034931;28;20517;-46
2023/04/27 02:30:27;;;;;;;11.00;6.47;;;4.50;99.90;;;;;;5034494;28;20234;-42
2023/04/27 02:32:52;;;;;;;12.33;7.13;;;4.50;99.90;;;;;;5034329;28;20282;-44
2023/04/27 02:35:18;;;;;;;12.17;6.87;;;4.40;99.90;;;;;;5034859;28;20215;-45
2023/04/27 02:37:43;;;;;;;10.87;6.47;;;4.40;99.90;;;;;;5034597;28;20181;-45
2023/04/27 02:40:10;;;;;;;10.77;6.17;;;4.30;99.90;;;;;;5034448;28;20176;-42
2023/04/27 02:42:37;;;;;;;8.73;6.60;;;4.30;99.90;;;;;;5034674;28;20216;-43
2023/04/27 02:45:05;;;;;;;10.10;5.90;;;4.20;99.90;;;;;;5034408;28;20643;-45
2023/04/27 02:47:30;;;;;;;13.17;6.33;;;4.20;99.90;;;;;;5034004;28;20175;-44
2023/04/27 02:49:56;;;;;;;10.30;6.37;;;4.10;99.90;;;;;;5034069;28;20290;-43
2023/04/27 02:52:21;;;;;;;8.73;5.83;;;4.10;99.90;;;;;;5034263;28;20754;-44
2023/04/27 02:54:47;;;;;;;11.47;6.23;;;4.10;99.90;;;;;;5033479;28;20644;-44
2023/04/27 02:57:12;;;;;;;9.70;5.60;;;4.10;99.90;;;;;;5016336;28;20187;-45
2023/04/27 02:59:38;;;;;;;10.47;6.17;;;4.10;99.90;;;;;;5033947;28;20183;-45
2023/04/27 03:02:03;;;;;;;7.80;5.23;;;4.10;99.90;;;;;;5033792;28;20223;-46
2023/04/27 03:04:29;;;;;;;10.73;5.63;;;4.10;99.90;;;;;;5034316;28;20169;-45
2023/04/27 03:06:55;;;;;;;8.43;5.20;;;4.10;99.90;;;;;;5033946;28;20537;-43
2023/04/27 03:09:20;;;;;;;9.13;5.43;;;4.00;99.90;;;;;;5016177;28;20178;-43
2023/04/27 03:11:46;;;;;;;7.70;5.53;;;4.00;99.90;;;;;;5033943;28;20211;-44
2023/04/27 03:14:12;;;;;;;10.73;6.70;;;3.90;99.90;;;;;;5033715;28;20188;-45
2023/04/27 03:16:37;;;;;;;9.80;6.23;;;3.80;99.90;;;;;;5033843;28;20185;-44
2023/04/27 03:19:03;;;;;;;12.77;7.47;;;3.70;99.90;;;;;;5033891;28;20181;-43
2023/04/27 03:21:29;;;;;;;8.50;6.20;;;3.70;99.90;;;;;;5033602;28;20773;-42
2023/04/27 03:23:54;;;;;;;12.60;5.70;;;3.70;99.90;;;;;;5015869;28;20588;-43
2023/04/27 03:26:20;;;;;;;11.60;6.07;;;3.60;99.90;;;;;;5033775;28;20196;-45
2023/04/27 03:28:46;;;;;;;8.27;5.70;;;3.60;99.90;;;;;;5033416;28;20257;-42
2023/04/27 03:31:13;;;;;;;10.40;5.27;;;3.60;99.90;;;;;;5033686;28;20661;-43
2023/04/27 03:33:39;;;;;;;10.83;5.87;;;3.60;99.90;;;;;;5015623;28;20248;-43
2023/04/27 03:36:07;;;;;;;10.17;5.83;;;3.60;99.90;;;;;;5033399;28;20177;-44
2023/04/27 03:38:33;;;;;;;16.17;7.37;;;3.60;99.90;;;;;;5033394;28;20535;-46
2023/04/27 03:40:58;;;;;;;13.97;6.50;;;3.60;99.90;;;;;;5033493;28;20204;-46
2023/04/27 03:43:24;;;;;;;13.67;6.87;;;3.70;99.90;;;;;;5033398;28;20259;-45
2023/04/27 03:45:50;;;;;;;15.70;7.00;;;3.70;99.90;;;;;;5033347;28;20180;-45
2023/04/27 03:48:16;;;;;;;12.43;6.07;;;3.70;99.90;;;;;;5033248;28;20653;-44
2023/04/27 03:50:42;;;;;;;9.93;6.17;;;3.70;99.90;;;;;;5033556;28;20187;-45
2023/04/27 03:53:08;;;;;;;11.23;6.33;;;3.70;99.90;;;;;;5033333;28;20209;-45
2023/04/27 03:55:38;;;;;;;11.50;5.73;;;3.70;99.90;;;;;;5033094;28;20648;-44
2023/04/27 03:58:03;;;;;;;11.57;6.30;;;3.70;99.90;;;;;;5033613;28;20177;-44
2023/04/27 04:00:30;;;;;;;11.03;6.40;;;3.70;99.90;;;;;;5033087;28;20177;-43
2023/04/27 04:02:55;;;;;;;13.17;6.30;;;3.70;99.90;;;;;;5015413;28;20208;-47
2023/04/27 04:05:21;;;;;;;9.23;5.50;;;3.60;99.90;;;;;;5033081;28;20543;-46
2023/04/27 04:07:47;;;;;;;9.87;5.90;;;3.60;99.90;;;;;;5036355;28;20253;-45
2023/04/27 04:10:13;;;;;;;8.13;5.90;;;3.60;99.90;;;;;;5037306;28;20185;-44
2023/04/27 04:12:39;;;;;;;14.43;6.17;;;3.50;99.90;;;;;;5036882;28;20208;-43
2023/04/27 04:15:06;;;;;;;12.43;6.43;;;3.50;99.90;;;;;;5037185;28;20273;-45
2023/04/27 04:17:32;;;;;;;10.83;6.07;;;3.40;99.90;;;;;;5036870;28;20181;-43
2023/04/27 04:19:59;;;;;;;12.20;6.10;;;3.40;99.90;;;;;;5037037;28;20682;-44
2023/04/27 04:22:25;;;;;;;12.60;6.80;;;3.30;99.90;;;;;;5036737;28;20583;-43
2023/04/27 04:24:50;;;;;;;9.60;6.07;;;3.40;99.90;;;;;;5036742;28;20170;-43
2023/04/27 04:27:16;;;;;;;14.83;7.00;;;3.30;99.90;;;;;;5036714;28;20239;-43
2023/04/27 04:29:41;;;;;;;9.67;6.17;;;3.20;99.90;;;;;;5036875;28;20257;-45
2023/04/27 04:32:08;;;;;;;8.03;5.87;;;3.20;99.90;;;;;;5036567;28;20739;-43
2023/04/27 04:34:34;;;;;;;12.87;7.10;;;3.20;99.90;;;;;;5036601;28;20712;-43
2023/04/27 04:37:00;;;;;;;11.33;6.33;;;3.20;99.90;;;;;;5036574;28;20210;-44
2023/04/27 04:39:30;;;;;;;12.10;6.13;;;3.20;99.90;;;;;;5036449;28;20263;-42
2023/04/27 04:41:56;;;;;;;11.63;6.67;;;3.20;99.90;;;;;;5036527;28;20236;-45
2023/04/27 04:44:22;;;;;;;9.20;6.37;;;3.20;99.90;;;;;;5036555;28;20172;-44
2023/04/27 04:46:47;;;;;;;9.07;5.67;;;3.20;99.90;;;;;;5036351;28;20641;-45
2023/04/27 04:49:13;;;;;;;7.87;5.63;;;3.20;99.90;;;;;;5036288;28;20653;-45
2023/04/27 04:51:43;;;;;;;7.83;5.00;;;3.20;99.90;;;;;;5036162;28;20181;-45
2023/04/27 04:54:09;;;;;;;12.13;5.73;;;3.20;99.90;;;;;;5036237;28;20238;-45
2023/04/27 04:56:35;;;;;;;9.60;4.67;;;3.10;99.90;;;;;;5036486;28;20181;-47
2023/04/27 04:59:01;;;;;;;6.70;4.77;;;3.10;99.90;;;;;;5036407;28;20542;-43
2023/04/27 05:01:26;;;;;;;12.97;6.43;;;3.00;99.90;;;;;;5035936;28;20196;-43
2023/04/27 05:03:52;;;;;;;9.63;6.40;;;3.00;99.90;;;;;;5036085;28;20517;-44
2023/04/27 05:06:18;;;;;;;13.43;6.63;;;3.10;99.90;;;;;;5035960;28;20647;-45
2023/04/27 05:08:43;;;;;;;13.63;7.27;;;3.10;99.90;;;;;;5035965;28;20180;-45
2023/04/27 05:11:10;;;;;;;17.73;7.23;;;3.20;99.90;;;;;;5036592;28;20235;-44
2023/04/27 05:13:37;;;;;;;14.70;7.53;;;3.30;99.90;;;;;;5037016;28;20216;-43
2023/04/27 05:16:04;;;;;;;13.63;7.40;;;3.40;99.90;;;;;;5036046;28;20181;-45
2023/04/27 05:18:29;;;;;;;14.10;7.37;;;3.50;99.90;;;;;;5035356;28;20176;-42
2023/04/27 05:20:55;;;;;;;12.83;6.80;;;3.60;99.90;;;;;;5035565;28;20295;-44
2023/04/27 05:23:20;;;;;;;14.27;6.97;;;3.70;99.90;;;;;;5035692;28;20194;-44
2023/04/27 05:25:46;;;;;;;13.17;7.13;;;3.80;99.90;;;;;;5035646;28;20169;-45
2023/04/27 05:28:12;;;;;;;15.97;7.63;;;3.80;99.90;;;;;;5035717;28;20175;-45
2023/04/27 05:30:37;;;;;;;16.87;7.43;;;3.90;99.90;;;;;;5035811;28;20223;-43
2023/04/27 05:33:03;;;;;;;17.80;7.60;;;3.90;99.90;;;;;;5035735;28;20660;-44
2023/04/27 05:35:30;;;;;;;14.27;7.70;;;4.00;99.90;;;;;;5035526;28;20619;-45
2023/04/27 05:37:56;;;;;;;13.43;7.73;;;4.10;99.90;;;;;;5035723;28;20181;-44
2023/04/27 05:40:22;;;;;;;17.77;8.80;;;4.20;99.90;;;;;;5017642;28;20646;-44
2023/04/27 05:42:48;;;;;;;16.37;7.63;;;4.30;99.90;;;;;;5035499;28;20283;-43
2023/04/27 05:45:14;;;;;;;12.50;7.13;;;4.40;99.90;;;;;;5035726;28;20268;-45
2023/04/27 05:47:40;;;;;;;16.90;8.13;;;4.50;99.90;;;;;;5035395;28;20213;-45
2023/04/27 05:50:07;;;;;;;13.33;7.73;;;4.60;99.90;;;;;;5035587;28;20225;-45
2023/04/27 05:52:32;;;;;;;12.80;7.77;;;4.70;99.90;;;;;;5035167;28;20710;-45
2023/04/27 05:54:59;;;;;;;13.07;7.53;;;4.80;99.90;;;;;;5035198;28;20182;-44
2023/04/27 05:57:25;;;;;;;15.20;7.90;;;4.90;99.90;;;;;;5035088;28;20181;-44
2023/04/27 05:59:51;;;;;;;14.47;7.80;;;5.10;99.90;;;;;;5017301;28;20189;-46
2023/04/27 06:02:17;;;;;;;14.17;7.80;;;5.20;99.90;;;;;;5034801;28;20209;-44
2023/04/27 06:04:43;;;;;;;14.67;7.90;;;5.30;99.90;;;;;;5035310;28;20169;-46
2023/04/27 06:07:10;;;;;;;12.47;7.67;;;5.40;99.90;;;;;;5034948;28;20174;-46
2023/04/27 06:09:35;;;;;;;16.90;8.00;;;5.50;99.90;;;;;;5034870;28;20251;-45
2023/04/27 06:12:03;;;;;;;13.93;7.50;;;5.60;99.90;;;;;;5034963;28;20197;-43
2023/04/27 06:14:29;;;;;;;13.90;7.43;;;5.70;99.90;;;;;;5035033;28;20179;-45
2023/04/27 06:16:55;;;;;;;12.43;7.20;;;5.90;99.90;;;;;;5034987;28;20174;-46
2023/04/27 06:19:20;;;;;;;12.40;7.57;;;6.20;99.90;;;;;;5034968;28;20710;-46
2023/04/27 06:21:46;;;;;;;13.37;6.97;;;6.40;99.90;;;;;;5034480;28;20211;-44
2023/04/27 06:24:11;;;;;;;14.87;7.40;;;6.60;99.90;;;;;;5034589;28;20173;-43
2023/04/27 06:26:37;;;;;;;13.60;6.73;;;6.70;99.90;;;;;;5034566;28;20185;-43
2023/04/27 06:29:03;;;;;;;16.27;7.70;;;7.00;99.90;;;;;;5034254;28;20220;-44
2023/04/27 06:31:29;;;;;;;11.07;6.90;;;7.10;99.90;;;;;;5033807;28;20231;-45
2023/04/27 06:33:55;;;;;;;14.00;7.20;;;7.30;99.90;;;;;;5034373;28;20657;-43
2023/04/27 06:36:21;;;;;;;14.47;8.07;;;7.30;99.90;;;;;;5034577;28;20235;-44
2023/04/27 06:38:46;;;;;;;15.20;7.97;;;7.30;99.90;;;;;;5034528;28;20177;-45
2023/04/27 06:41:12;;;;;;;12.20;7.23;;;7.30;99.90;;;;;;5034436;28;20208;-42
2023/04/27 06:43:37;;;;;;;14.53;6.83;;;7.50;99.90;;;;;;5034405;28;20200;-45
2023/04/27 06:46:04;;;;;;;15.77;7.30;;;7.80;99.90;;;;;;5034750;28;20172;-46
2023/04/27 06:48:30;;;;;;;10.17;6.67;;;8.00;99.90;;;;;;5016363;28;20653;-45
2023/04/27 06:50:55;;;;;;;13.80;7.43;;;8.10;99.90;;;;;;5034000;28;20185;-44
2023/04/27 06:53:21;;;;;;;18.90;6.83;;;8.20;99.90;;;;;;5033969;28;20201;-45
2023/04/27 06:55:46;;;;;;;14.10;6.97;;;8.00;99.90;;;;;;5034000;28;20212;-43
2023/04/27 06:58:12;;;;;;;14.60;7.77;;;8.10;99.90;;;;;;5016253;28;20212;-44
2023/04/27 07:00:37;;;;;;;17.13;7.93;;;8.10;99.90;;;;;;5034063;28;20176;-46
2023/04/27 07:03:03;;;;;;;13.30;7.13;;;8.10;99.90;;;;;;5033916;28;20248;-44
2023/04/27 07:05:29;;;;;;;16.60;7.57;;;8.00;99.90;;;;;;5034088;28;20603;-46
2023/04/27 07:07:54;;;;;;;13.30;7.27;;;8.10;99.90;;;;;;5034028;28;20183;-46
2023/04/27 07:10:20;;;;;;;13.87;6.57;;;8.30;99.90;;;;;;5033989;28;20652;-44
2023/04/27 07:12:45;;;;;;;14.23;6.60;;;8.60;99.90;;;;;;5033641;28;20207;-43
2023/04/27 07:15:11;;;;;;;14.97;7.60;;;8.90;99.90;;;;;;5034212;28;20572;-45
2023/04/27 07:17:36;;;;;;;16.97;8.40;;;9.00;99.90;;;;;;5033611;28;20180;-46
2023/04/27 07:20:04;;;;;;;13.83;7.33;;;9.10;99.90;;;;;;5015887;28;20195;-44
2023/04/27 07:22:31;;;;;;;13.03;7.77;;;9.10;99.90;;;;;;5015769;28;20216;-45
2023/04/27 07:24:56;;;;;;;15.50;7.30;;;9.20;99.90;;;;;;5034053;28;20207;-46
2023/04/27 07:27:22;;;;;;;16.87;7.90;;;9.40;99.90;;;;;;5033534;28;20637;-45
2023/04/27 07:29:48;;;;;;;12.67;7.20;;;9.60;99.90;;;;;;5033465;28;20172;-44
2023/04/27 07:32:13;;;;;;;20.60;7.70;;;9.90;99.90;;;;;;5033329;28;20200;-44
2023/04/27 07:34:39;;;;;;;16.97;8.00;;;10.10;99.90;;;;;;5033683;28;20193;-45
2023/04/27 07:37:06;;;;;;;14.93;7.33;;;10.10;99.90;;;;;;5033475;28;20200;-44
2023/04/27 07:39:32;;;;;;;14.07;7.67;;;10.10;99.90;;;;;;5033455;28;20254;-45
2023/04/27 07:41:58;;;;;;;12.20;7.20;;;10.00;99.90;;;;;;5033223;28;20732;-46
2023/04/27 07:44:24;;;;;;;15.33;7.17;;;10.00;99.90;;;;;;5033550;28;20547;-46
2023/04/27 07:46:52;;;;;;;14.10;7.37;;;10.00;99.90;;;;;;5033699;28;20265;-45
2023/04/27 07:49:19;;;;;;;13.63;7.27;;;10.20;99.90;;;;;;5034257;28;20250;-45
2023/04/27 07:51:45;;;;;;;17.00;7.77;;;10.30;99.90;;;;;;5033504;28;20578;-45
2023/04/27 07:54:10;;;;;;;12.93;7.20;;;10.30;99.90;;;;;;5033475;28;20272;-46
2023/04/27 07:56:39;;;;;;;12.40;7.53;;;10.20;99.90;;;;;;5033176;28;20185;-44
2023/04/27 07:59:04;;;;;;;14.03;7.67;;;10.30;99.90;;;;;;5033228;28;20185;-47
2023/04/27 08:01:30;;;;;;;16.07;8.47;;;10.50;99.90;;;;;;5033266;28;20211;-47
2023/04/27 08:03:56;;;;;;;19.80;7.63;;;10.70;99.90;;;;;;5033389;28;20184;-47
2023/04/27 08:06:22;;;;;;;10.93;7.23;;;10.60;99.90;;;;;;5033463;28;20270;-46
2023/04/27 08:08:47;;;;;;;11.10;6.80;;;10.70;99.90;;;;;;5033154;28;20226;-45
2023/04/27 08:11:13;;;;;;;12.47;7.43;;;10.80;99.90;;;;;;5015507;28;20185;-44
2023/04/27 08:13:38;;;;;;;12.43;8.73;;;10.80;99.90;;;;;;5032997;28;20200;-43
2023/04/27 08:16:05;;;;;;;11.40;7.07;;;10.80;99.90;;;;;;5033141;28;20184;-45
2023/04/27 08:18:30;;;;;;;12.27;7.90;;;10.80;99.90;;;;;;5033105;28;20692;-45
2023/04/27 08:20:56;;;;;;;16.50;7.13;;;11.00;99.90;;;;;;5033230;28;20232;-47
2023/04/27 08:23:21;;;;;;;14.13;7.67;;;11.20;99.90;;;;;;5032946;28;20247;-45
2023/04/27 08:25:47;;;;;;;13.57;7.60;;;11.40;99.90;;;;;;5033289;28;20177;-44
2023/04/27 08:28:13;;;;;;;19.50;7.10;;;11.40;99.90;;;;;;5033238;28;20603;-45
2023/04/27 08:30:41;;;;;;;11.07;7.67;;;11.40;99.90;;;;;;5032911;28;20165;-47
2023/04/27 08:33:07;;;;;;;14.03;7.43;;;11.60;99.90;;;;;;5033011;28;20283;-45
2023/04/27 08:35:33;;;;;;;12.93;7.80;;;11.80;99.90;;;;;;5032761;28;20268;-45
2023/04/27 08:37:58;;;;;;;13.40;7.63;;;11.90;99.90;;;;;;5033115;28;20181;-47
2023/04/27 08:40:24;;;;;;;12.47;7.57;;;11.90;99.90;;;;;;5032811;28;20605;-47
2023/04/27 08:42:55;;;;;;;12.37;7.10;;;12.10;99.90;;;;;;5032918;28;20241;-46
2023/04/27 08:45:25;;;;;;;14.20;7.50;;;12.20;99.90;;;;;;5032992;28;20264;-45
2023/04/27 08:47:51;;;;;;;10.23;6.73;;;12.30;99.90;;;;;;5033019;28;20181;-45
2023/04/27 08:50:17;;;;;;;13.93;6.93;;;12.40;99.90;;;;;;5032736;28;20157;-45
2023/04/27 08:52:47;;;;;;;8.10;5.67;;;12.50;99.90;;;;;;5014912;28;20575;-47
2023/04/27 08:55:12;;;;;;;12.50;6.40;;;12.60;99.90;;;;;;5036389;28;20183;-45
2023/04/27 08:57:38;;;;;;;7.53;5.90;;;12.70;99.90;;;;;;5036243;28;20185;-48
2023/04/27 09:00:11;;;;;;;9.17;6.67;;;12.80;99.90;;;;;;5036404;28;20185;-47
2023/04/27 09:02:47;;;;;;;12.20;7.00;;;12.80;99.90;;;;;;5036364;28;20205;-47
2023/04/27 09:05:19;;;;;;;7.53;5.13;;;12.90;99.90;;;;;;5036029;28;20192;-45
2023/04/27 09:07:59;;;;;;;7.77;5.67;;;12.70;99.90;;;;;;5036017;28;20173;-46
2023/04/27 09:10:27;;;;;;;9.77;6.07;;;12.60;99.90;;;;;;5036200;28;20173;-45
2023/04/27 09:12:58;;;;;;;10.10;6.27;;;12.50;99.90;;;;;;5035903;28;20330;-44
2023/04/27 09:15:24;;;;;;;9.30;6.17;;;12.50;99.90;;;;;;5036277;28;20207;-47
2023/04/27 09:17:55;;;;;;;10.93;6.50;;;12.50;99.90;;;;;;5036140;28;20607;-47
2023/04/27 09:20:20;;;;;;;8.77;5.57;;;12.80;99.90;;;;;;5036026;28;20209;-44
2023/04/27 09:22:50;;;;;;;8.47;5.70;;;12.90;99.90;;;;;;5035623;28;20240;-46
2023/04/27 09:25:27;;;;;;;11.60;6.63;;;13.00;99.90;;;;;;5035713;28;20177;-47
2023/04/27 09:27:53;;;;;;;12.67;7.10;;;13.00;99.90;;;;;;5035694;28;20168;-46
2023/04/27 09:30:20;;;;;;;14.30;7.50;;;13.00;99.90;;;;;;5035606;28;20275;-44
2023/04/27 09:33:04;;;;;;;12.60;6.87;;;13.10;99.90;;;;;;5035713;28;20205;-47
2023/04/27 09:35:32;;;;;;;8.53;5.50;;;13.30;99.90;;;;;;5035783;28;20165;-46
2023/04/27 09:37:59;;;;;;;10.23;6.03;;;13.40;99.90;;;;;;5035691;28;20181;-46
2023/04/27 09:40:28;;;;;;;11.67;7.97;;;13.60;99.90;;;;;;5035688;28;20192;-46
2023/04/27 09:42:55;;;;;;;9.43;5.83;;;13.40;99.90;;;;;;5035452;28;20208;-46
2023/04/27 09:45:25;;;;;;;11.87;6.50;;;13.60;99.90;;;;;;5035576;28;20169;-46
2023/04/27 09:47:51;;;;;;;11.57;6.47;;;13.70;99.90;;;;;;5035352;28;20189;-44
2023/04/27 09:50:16;;;;;;;10.00;6.50;;;13.80;99.90;;;;;;5035354;28;20169;-45
2023/04/27 09:52:44;;;;;;;10.77;7.23;;;13.90;99.90;;;;;;5035415;28;20223;-47
2023/04/27 09:55:14;;;;;;;10.67;6.60;;;14.00;99.90;;;;;;5035449;28;20177;-44
2023/04/27 09:58:10;;;;;;;10.40;6.50;;;14.10;99.90;;;;;;5035342;28;20166;-45
2023/04/27 10:01:00;;;;;;;12.50;5.83;;;14.30;99.90;;;;;;5034984;28;20631;-46
2023/04/27 10:03:31;;;;;;;13.17;6.50;;;14.50;99.90;;;;;;5034984;28;20196;-47
2023/04/27 10:06:27;;;;;;;10.70;5.90;;;14.70;99.90;;;;;;5034987;28;20184;-46
2023/04/27 10:08:55;;;;;;;9.50;7.13;;;14.80;99.90;;;;;;5035308;28;20161;-46
2023/04/27 10:11:32;;;;;;;8.53;6.83;;;14.80;99.90;;;;;;5035086;28;20189;-47
2023/04/27 10:14:04;;;;;;;10.70;6.40;;;14.70;99.90;;;;;;5035023;28;20192;-44
2023/04/27 10:16:43;;;;;;;8.40;6.37;;;14.50;99.90;;;;;;5035035;28;20172;-47
2023/04/27 10:19:09;;;;;;;11.37;7.63;;;14.30;99.90;;;;;;5034646;28;20307;-46
2023/04/27 10:21:34;;;;;;;12.23;7.07;;;14.30;99.90;;;;;;5016735;28;20200;-46
2023/04/27 10:24:07;;;;;;;11.73;7.23;;;14.20;99.90;;;;;;5034825;28;20664;-45
2023/04/27 10:26:33;;;;;;;10.50;6.63;;;14.20;99.90;;;;;;5034853;28;20634;-47
2023/04/27 10:29:07;;;;;;;11.47;6.80;;;14.30;99.90;;;;;;5034566;28;20180;-44
2023/04/27 10:31:34;;;;;;;12.50;6.80;;;14.40;99.90;;;;;;5034671;28;20171;-47
2023/04/27 10:34:10;;;;;;;11.27;7.10;;;14.40;99.90;;;;;;5034631;28;20185;-47
2023/04/27 10:36:38;;;;;;;11.30;7.07;;;14.20;99.90;;;;;;5034587;28;20185;-46
2023/04/27 10:39:15;;;;;;;11.13;6.70;;;14.10;99.90;;;;;;5034849;28;20519;-46
2023/04/27 10:41:50;;;;;;;9.50;7.33;;;14.20;99.90;;;;;;5034414;28;20554;-48
2023/04/27 10:44:16;;;;;;;10.37;7.80;;;14.60;99.90;;;;;;5034489;28;20160;-46
2023/04/27 10:46:52;;;;;;;11.87;7.77;;;14.90;99.90;;;;;;5034383;28;20177;-46
2023/04/27 10:49:18;;;;;;;11.73;8.10;;;15.20;99.90;;;;;;5033997;28;20195;-46
2023/04/27 10:51:45;;;;;;;12.53;8.53;;;15.40;99.90;;;;;;5034270;28;20181;-45
2023/04/27 10:54:11;;;;;;;13.70;7.83;;;15.60;99.90;;;;;;5016321;28;20250;-47
2023/04/27 10:56:37;;;;;;;12.90;8.90;;;15.80;99.90;;;;;;5034534;28;20180;-47
2023/04/27 10:59:03;;;;;;;16.37;10.30;;;16.00;99.90;;;;;;5034217;28;20188;-46
2023/04/27 11:01:29;;;;;;;14.53;9.20;;;16.10;99.90;;;;;;5033688;28;20204;-46
2023/04/27 11:03:56;;;;;;;13.57;8.30;;;16.00;99.90;;;;;;5033930;28;20242;-47
2023/04/27 11:06:22;;;;;;;12.90;9.03;;;16.10;99.90;;;;;;5033834;28;20641;-47
2023/04/27 11:08:47;;;;;;;15.07;9.13;;;16.20;99.90;;;;;;5034016;28;20176;-48
2023/04/27 11:11:15;;;;;;;11.83;9.23;;;16.30;99.90;;;;;;5033742;28;20180;-47
2023/04/27 11:13:42;;;;;;;11.73;9.17;;;16.40;99.90;;;;;;5033696;28;20193;-46
2023/04/27 11:16:08;;;;;;;14.10;9.03;;;16.60;99.90;;;;;;5033400;28;20181;-46
2023/04/27 11:18:36;;;;;;;14.33;9.63;;;16.60;99.90;;;;;;5033982;28;20208;-47
2023/04/27 11:21:14;;;;;;;14.10;9.30;;;16.60;99.90;;;;;;5033497;28;20665;-47
2023/04/27 11:23:40;;;;;;;12.47;9.07;;;16.40;99.90;;;;;;5015934;28;20188;-46
2023/04/27 11:26:16;;;;;;;13.77;9.20;;;16.40;99.90;;;;;;5033552;28;20546;-46
2023/04/27 11:28:43;;;;;;;13.70;9.60;;;16.50;99.90;;;;;;5033786;28;20188;-46
2023/04/27 11:31:10;;;;;;;12.70;9.00;;;16.70;99.90;;;;;;5033468;28;20625;-45
2023/04/27 11:33:36;;;;;;;13.70;9.20;;;16.80;99.90;;;;;;5033372;28;20211;-45
2023/04/27 11:36:02;;;;;;;15.37;10.00;;;17.00;99.90;;;;;;5033324;28;20177;-46
2023/04/27 11:38:34;;;;;;;16.63;10.60;;;16.90;99.90;;;;;;5033428;28;20173;-45
2023/04/27 11:41:09;;;;;;;13.57;9.10;;;16.50;99.90;;;;;;5033546;28;20188;-46
2023/04/27 11:43:41;;;;;;;13.63;8.83;;;16.20;99.90;;;;;;5033489;28;20258;-46
2023/04/27 11:46:09;;;;;;;14.67;9.37;;;16.40;99.90;;;;;;5033550;28;20169;-47
2023/04/27 11:48:36;;;;;;;12.37;9.53;;;16.40;99.90;;;;;;5033197;28;20270;-44
2023/04/27 11:51:02;;;;;;;15.30;8.80;;;16.40;99.90;;;;;;5033534;28;20181;-47
2023/04/27 11:53:30;;;;;;;13.37;9.50;;;16.30;99.90;;;;;;5033240;28;20220;-46
2023/04/27 11:56:06;;;;;;;13.10;10.13;;;16.20;99.90;;;;;;5033495;28;20181;-45
2023/04/27 11:58:33;;;;;;;13.83;9.27;;;16.00;99.90;;;;;;5033507;28;20172;-46
2023/04/27 12:00:59;;;;;;;20.20;9.63;;;15.80;99.90;;;;;;5033251;28;20680;-45
2023/04/27 12:03:26;;;;;;;12.93;9.13;;;15.80;99.90;;;;;;5033283;28;20188;-45
2023/04/27 12:05:53;;;;;;;11.53;9.30;;;15.80;99.90;;;;;;5033606;28;20238;-46
2023/04/27 12:08:19;;;;;;;14.73;9.43;;;15.90;99.90;;;;;;5033587;28;20204;-46
2023/04/27 12:10:45;;;;;;;12.93;9.53;;;16.10;99.90;;;;;;5033303;28;20180;-47
2023/04/27 12:13:11;;;;;;;12.10;9.83;;;16.50;99.90;;;;;;5033227;28;20203;-46
2023/04/27 12:15:37;;;;;;;14.73;9.40;;;16.50;99.90;;;;;;5033630;28;20181;-46
2023/04/27 12:18:03;;;;;;;12.77;9.07;;;16.40;99.90;;;;;;5032976;28;20173;-46
2023/04/27 12:20:29;;;;;;;15.40;10.47;;;16.40;99.90;;;;;;5032970;28;20471;-46
2023/04/27 12:22:56;;;;;;;14.27;10.03;;;16.30;99.90;;;;;;5033041;28;20216;-47
2023/04/27 12:25:21;;;;;;;13.13;9.63;;;16.30;99.90;;;;;;5032933;28;20184;-46
2023/04/27 12:27:47;;;;;;;14.83;9.60;;;16.20;99.90;;;;;;5034539;28;20248;-45
2023/04/27 12:30:13;;;;;;;15.93;9.03;;;16.30;99.90;;;;;;5036683;28;20177;-47
2023/04/27 12:32:40;;;;;;;13.17;8.77;;;16.50;99.90;;;;;;5036876;28;20262;-45
2023/04/27 12:35:06;;;;;;;12.37;9.27;;;16.80;99.90;;;;;;5036602;28;20246;-46
2023/04/27 12:37:32;;;;;;;12.97;9.87;;;17.10;99.90;;;;;;5036586;28;20715;-45
2023/04/27 12:39:58;;;;;;;16.13;8.33;;;17.30;99.90;;;;;;5036581;28;20184;-46
2023/04/27 12:42:23;;;;;;;15.70;8.83;;;17.60;99.90;;;;;;5036653;28;20213;-46